Time;durP1;ratioP1;P1;durP2;ratioP2;P2;SDS_P1;SDS_P2;PMS_P1;PMS_P2;Temp;Humidity;BMP_temperature;BMP_pressure;BME280_temperature;BME280_humidity;BME280_pressure;Samples;Min_cycle;Max_cycle;Signal;HPM_P1;HPM_P2
2023/09/27 00:01:00;;;;;;;15.93;11.57;;;;;;;;;;6086512;23;20736;-67
2023/09/27 00:03:54;;;;;;;17.20;11.38;;;;;;;;;;6084628;23;20048;-67
2023/09/27 00:06:41;;;;;;;19.88;13.20;;;;;;;;;;6085393;23;20496;-67
2023/09/27 00:09:35;;;;;;;19.17;13.68;;;;;;;;;;6083798;23;20883;-68
2023/09/27 00:12:22;;;;;;;18.13;12.65;;;;;;;;;;6085924;23;20065;-56
2023/09/27 00:15:16;;;;;;;14.23;12.65;;;;;;;;;;6086430;23;20030;-52
2023/09/27 00:18:09;;;;;;;20.02;15.63;;;;;;;;;;6087926;23;20030;-53
2023/09/27 00:21:04;;;;;;;19.25;16.00;;;;;;;;;;6085739;23;20133;-50
2023/09/27 00:23:51;;;;;;;19.75;16.80;;;;;;;;;;6086596;23;20030;-48
2023/09/27 00:26:45;;;;;;;26.17;16.85;;;;;;;;;;6085342;23;20026;-49
2023/09/27 00:29:32;;;;;;;24.25;17.25;;;;;;;;;;6087342;23;20022;-50
2023/09/27 00:32:25;;;;;;;29.10;20.00;;;;;;;;;;6086678;23;20508;-58
2023/09/27 00:35:22;;;;;;;27.65;20.17;;;;;;;;;;6086156;23;20730;-58
2023/09/27 00:38:07;;;;;;;35.13;22.08;;;;;;;;;;6086178;23;20905;-56
2023/09/27 00:40:55;;;;;;;33.75;24.35;;;;;;;;;;6086014;23;20018;-57
2023/09/27 00:43:48;;;;;;;31.13;24.33;;;;;;;;;;6085284;23;20101;-58
2023/09/27 00:46:36;;;;;;;35.97;23.50;;;;;;;;;;6087063;23;20472;-59
2023/09/27 00:49:29;;;;;;;33.10;26.00;;;;;;;;;;6085876;23;20038;-65
2023/09/27 00:52:17;;;;;;;35.15;26.50;;;;;;;;;;6081593;23;20539;-48
2023/09/27 00:55:12;;;;;;;38.08;28.15;;;;;;;;;;6085641;23;20030;-46
2023/09/27 00:57:58;;;;;;;40.78;26.33;;;;;;;;;;6086330;23;20030;-47
2023/09/27 01:00:52;;;;;;;44.92;29.77;;;;;;;;;;6086054;23;20026;-48
2023/09/27 01:03:40;;;;;;;41.78;28.00;;;;;;;;;;6085852;23;20030;-46
2023/09/27 01:06:35;;;;;;;42.28;27.92;;;;;;;;;;6086999;23;20086;-57
2023/09/27 01:09:22;;;;;;;43.88;28.05;;;;;;;;;;6084354;23;20030;-59
2023/09/27 01:12:15;;;;;;;39.25;28.73;;;;;;;;;;6082883;23;20030;-59
2023/09/27 01:15:03;;;;;;;45.90;31.33;;;;;;;;;;6085935;23;20032;-59
2023/09/27 01:18:10;;;;;;;40.55;27.67;;;;;;;;;;6084376;23;20093;-59
2023/09/27 01:21:05;;;;;;;41.40;29.27;;;;;;;;;;6081429;23;20026;-59
2023/09/27 01:23:58;;;;;;;49.40;30.98;;;;;;;;;;6086678;23;20074;-60
2023/09/27 01:26:53;;;;;;;47.42;31.23;;;;;;;;;;6087543;23;20030;-59
2023/09/27 01:29:47;;;;;;;46.85;33.47;;;;;;;;;;6082586;23;20472;-59
2023/09/27 01:32:36;;;;;;;48.70;34.83;;;;;;;;;;6085512;23;20030;-59
2023/09/27 01:35:30;;;;;;;55.95;35.88;;;;;;;;;;6083928;23;20026;-59
2023/09/27 01:38:17;;;;;;;60.90;36.92;;;;;;;;;;6081804;23;20027;-59
2023/09/27 01:41:11;;;;;;;64.55;38.70;;;;;;;;;;6085659;23;20026;-60
2023/09/27 01:43:58;;;;;;;70.53;38.20;;;;;;;;;;6085674;23;20030;-51
2023/09/27 01:46:51;;;;;;;67.57;39.97;;;;;;;;;;6084340;23;20029;-59
2023/09/27 01:49:46;;;;;;;68.43;40.72;;;;;;;;;;6088075;23;20098;-59
2023/09/27 01:52:33;;;;;;;64.90;40.92;;;;;;;;;;6084446;23;20029;-59
2023/09/27 01:55:26;;;;;;;75.65;43.85;;;;;;;;;;6083663;23;20540;-59
2023/09/27 01:58:14;;;;;;;74.70;44.58;;;;;;;;;;6084322;23;20089;-59
2023/09/27 02:01:07;;;;;;;71.80;43.72;;;;;;;;;;6086720;23;20030;-51
2023/09/27 02:03:55;;;;;;;72.18;42.47;;;;;;;;;;6086713;23;20022;-57
2023/09/27 02:06:48;;;;;;;88.30;47.22;;;;;;;;;;6085146;23;20078;-58
2023/09/27 02:09:36;;;;;;;94.97;49.97;;;;;;;;;;6083942;23;20030;-58
2023/09/27 02:12:29;;;;;;;73.10;43.70;;;;;;;;;;6086076;23;20049;-58
2023/09/27 02:15:16;;;;;;;91.45;47.28;;;;;;;;;;6085210;23;20114;-57
2023/09/27 02:18:23;;;;;;;79.78;44.08;;;;;;;;;;6087922;23;20034;-58
2023/09/27 02:21:18;;;;;;;83.78;46.42;;;;;;;;;;6084037;23;20027;-59
2023/09/27 02:24:12;;;;;;;84.55;44.60;;;;;;;;;;6086806;23;20097;-50
2023/09/27 02:26:59;;;;;;;96.32;49.42;;;;;;;;;;6079992;23;20022;-53
2023/09/27 02:29:52;;;;;;;83.10;45.40;;;;;;;;;;6080962;23;20081;-51
2023/09/27 02:32:41;;;;;;;91.05;46.40;;;;;;;;;;6087240;23;20065;-51
2023/09/27 02:35:33;;;;;;;86.05;45.92;;;;;;;;;;6088892;23;20401;-48
2023/09/27 02:38:21;;;;;;;76.72;43.47;;;;;;;;;;6086757;23;20018;-58
2023/09/27 02:41:14;;;;;;;87.18;49.95;;;;;;;;;;6086988;23;20026;-66
2023/09/27 02:44:03;;;;;;;97.32;51.00;;;;;;;;;;6088358;23;20026;-66
2023/09/27 02:46:55;;;;;;;87.40;47.33;;;;;;;;;;6087560;23;20027;-66
2023/09/27 02:49:43;;;;;;;95.78;50.53;;;;;;;;;;6086378;23;20082;-66
2023/09/27 02:52:38;;;;;;;88.03;47.72;;;;;;;;;;6086033;23;20543;-66
2023/09/27 02:55:25;;;;;;;81.82;45.60;;;;;;;;;;6087490;23;20061;-58
2023/09/27 02:58:18;;;;;;;77.25;44.88;;;;;;;;;;6087571;23;20018;-59
2023/09/27 03:01:11;;;;;;;72.68;43.60;;;;;;;;;;6087440;23;20488;-48
2023/09/27 03:04:06;;;;;;;86.20;46.58;;;;;;;;;;6088574;23;20034;-46
2023/09/27 03:06:54;;;;;;;82.60;46.20;;;;;;;;;;6086422;23;20473;-47
2023/09/27 03:09:47;;;;;;;81.20;46.58;;;;;;;;;;6085848;23;20029;-46
2023/09/27 03:12:34;;;;;;;65.03;41.05;;;;;;;;;;6082950;23;20746;-47
2023/09/27 03:15:31;;;;;;;73.15;42.28;;;;;;;;;;6083067;23;20026;-66
2023/09/27 03:18:16;;;;;;;72.53;43.65;;;;;;;;;;6086578;23;20033;-51
2023/09/27 03:21:20;;;;;;;68.82;40.40;;;;;;;;;;6086762;23;20027;-49
2023/09/27 03:24:08;;;;;;;65.03;40.58;;;;;;;;;;6087627;23;20086;-49
2023/09/27 03:27:02;;;;;;;62.75;39.17;;;;;;;;;;6087329;23;20516;-54
2023/09/27 03:29:48;;;;;;;58.50;36.83;;;;;;;;;;6088030;23;20023;-51
2023/09/27 03:32:42;;;;;;;68.03;39.72;;;;;;;;;;6086387;23;20129;-58
2023/09/27 03:35:29;;;;;;;71.93;40.63;;;;;;;;;;6087552;23;20544;-66
2023/09/27 03:38:24;;;;;;;66.65;39.83;;;;;;;;;;6084274;23;20022;-66
2023/09/27 03:41:18;;;;;;;56.70;38.08;;;;;;;;;;6086343;23;20743;-66
2023/09/27 03:44:05;;;;;;;68.80;39.33;;;;;;;;;;6086260;23;20026;-66
2023/09/27 03:46:58;;;;;;;73.47;44.00;;;;;;;;;;6084293;23;20134;-66
2023/09/27 03:49:46;;;;;;;60.97;39.40;;;;;;;;;;6086547;23;20022;-66
2023/09/27 03:52:40;;;;;;;63.53;38.95;;;;;;;;;;6085793;23;20058;-60
2023/09/27 03:55:27;;;;;;;69.33;40.60;;;;;;;;;;6084780;23;20030;-66
2023/09/27 03:58:22;;;;;;;67.63;39.67;;;;;;;;;;6086163;23;20026;-65
2023/09/27 04:01:09;;;;;;;73.63;41.20;;;;;;;;;;6086917;23;20102;-66
2023/09/27 04:04:04;;;;;;;65.65;40.67;;;;;;;;;;6086842;23;20046;-66
2023/09/27 04:06:50;;;;;;;72.57;42.03;;;;;;;;;;6089906;23;20030;-66
2023/09/27 04:09:44;;;;;;;71.90;41.70;;;;;;;;;;6085637;23;20024;-57
2023/09/27 04:12:31;;;;;;;74.53;43.55;;;;;;;;;;6089484;23;20045;-58
2023/09/27 04:15:25;;;;;;;70.88;39.60;;;;;;;;;;6082997;23;20026;-55
2023/09/27 04:18:18;;;;;;;61.75;39.50;;;;;;;;;;6088099;23;20062;-57
2023/09/27 04:21:19;;;;;;;59.10;35.80;;;;;;;;;;6086090;23;20476;-58
2023/09/27 04:24:07;;;;;;;64.85;37.97;;;;;;;;;;6086501;23;20029;-58
2023/09/27 04:27:01;;;;;;;70.72;39.75;;;;;;;;;;6087588;23;20029;-56
2023/09/27 04:29:50;;;;;;;68.00;38.50;;;;;;;;;;6086457;23;20038;-58
2023/09/27 04:32:42;;;;;;;64.35;38.15;;;;;;;;;;6085256;23;20027;-48
2023/09/27 04:35:30;;;;;;;60.77;37.40;;;;;;;;;;6086400;23;20026;-49
2023/09/27 04:38:23;;;;;;;67.75;39.15;;;;;;;;;;6085515;23;20460;-51
2023/09/27 04:41:20;;;;;;;63.42;36.58;;;;;;;;;;6081928;23;20058;-52
2023/09/27 04:44:13;;;;;;;69.00;41.22;;;;;;;;;;6085629;23;20129;-47
2023/09/27 04:47:00;;;;;;;68.57;40.30;;;;;;;;;;6084630;23;20532;-59
2023/09/27 04:49:55;;;;;;;61.20;36.40;;;;;;;;;;6084462;23;20034;-59
2023/09/27 04:52:43;;;;;;;66.50;39.83;;;;;;;;;;6083692;23;20560;-59
2023/09/27 04:55:37;;;;;;;67.45;37.78;;;;;;;;;;6083672;23;20078;-59
2023/09/27 04:58:24;;;;;;;79.82;43.50;;;;;;;;;;6084796;23;20027;-58
2023/09/27 05:01:18;;;;;;;73.72;41.10;;;;;;;;;;6084751;23;20102;-59
2023/09/27 05:04:06;;;;;;;77.75;43.13;;;;;;;;;;6086620;23;20022;-49
2023/09/27 05:07:00;;;;;;;86.30;45.40;;;;;;;;;;6083213;23;20495;-65
2023/09/27 05:09:48;;;;;;;72.68;40.10;;;;;;;;;;6081404;23;20023;-58
2023/09/27 05:12:42;;;;;;;70.75;40.10;;;;;;;;;;6087710;23;20033;-59
2023/09/27 05:15:29;;;;;;;78.97;44.33;;;;;;;;;;6088541;23;20022;-59
2023/09/27 05:18:23;;;;;;;79.95;44.15;;;;;;;;;;6088723;23;20026;-59
2023/09/27 05:21:17;;;;;;;74.78;41.25;;;;;;;;;;6088277;23;20079;-59
2023/09/27 05:24:10;;;;;;;79.22;44.72;;;;;;;;;;6087232;23;20022;-49
2023/09/27 05:26:59;;;;;;;78.90;42.30;;;;;;;;;;6087848;23;20077;-58
2023/09/27 05:29:53;;;;;;;78.53;43.10;;;;;;;;;;6087335;23;20598;-57
2023/09/27 05:32:43;;;;;;;80.75;43.05;;;;;;;;;;6088166;23;20101;-57
2023/09/27 05:35:36;;;;;;;68.72;40.35;;;;;;;;;;6087906;23;20026;-60
2023/09/27 05:38:23;;;;;;;71.35;41.70;;;;;;;;;;6076723;23;20540;-58
2023/09/27 05:41:17;;;;;;;77.00;42.22;;;;;;;;;;6076750;23;20042;-62
2023/09/27 05:44:05;;;;;;;65.80;38.00;;;;;;;;;;6088862;23;20097;-59
2023/09/27 05:46:59;;;;;;;65.53;37.75;;;;;;;;;;6088702;23;20029;-59
2023/09/27 05:49:46;;;;;;;58.65;36.60;;;;;;;;;;6087896;23;20027;-60
2023/09/27 05:52:43;;;;;;;69.18;38.45;;;;;;;;;;6089093;23;20555;-57
2023/09/27 05:55:28;;;;;;;64.05;36.75;;;;;;;;;;6087855;23;20033;-59
2023/09/27 05:58:21;;;;;;;71.43;38.20;;;;;;;;;;6078845;23;20097;-59
2023/09/27 06:01:19;;;;;;;65.93;38.70;;;;;;;;;;6088227;23;20377;-50
2023/09/27 06:04:10;;;;;;;64.68;36.65;;;;;;;;;;6087425;23;20107;-51
2023/09/27 06:06:58;;;;;;;51.80;32.97;;;;;;;;;;6088072;23;20026;-49
2023/09/27 06:09:51;;;;;;;60.30;37.20;;;;;;;;;;6087218;23;20026;-58
2023/09/27 06:12:38;;;;;;;59.17;36.08;;;;;;;;;;6088996;23;20027;-60
2023/09/27 06:15:35;;;;;;;57.22;35.35;;;;;;;;;;6087457;23;20026;-60
2023/09/27 06:18:28;;;;;;;66.75;38.55;;;;;;;;;;6088152;23;20535;-59
2023/09/27 06:21:23;;;;;;;56.75;34.92;;;;;;;;;;6086459;23;20030;-60
2023/09/27 06:24:10;;;;;;;52.30;33.60;;;;;;;;;;6088835;23;20049;-59
2023/09/27 06:27:03;;;;;;;50.80;29.90;;;;;;;;;;6084974;23;20090;-60
2023/09/27 06:29:51;;;;;;;50.58;31.00;;;;;;;;;;6086364;23;20019;-58
2023/09/27 06:32:46;;;;;;;57.67;32.65;;;;;;;;;;6087963;23;20026;-58
2023/09/27 06:35:33;;;;;;;52.75;31.70;;;;;;;;;;6086936;23;20074;-58
2023/09/27 06:38:27;;;;;;;48.80;29.20;;;;;;;;;;6087892;23;20022;-58
2023/09/27 06:41:15;;;;;;;42.15;28.98;;;;;;;;;;6088044;23;20094;-52
2023/09/27 06:44:08;;;;;;;44.17;30.17;;;;;;;;;;6088312;23;20054;-49
2023/09/27 06:46:55;;;;;;;45.38;27.30;;;;;;;;;;6089284;23;20057;-51
2023/09/27 06:49:48;;;;;;;43.33;28.20;;;;;;;;;;6086330;23;20125;-47
2023/09/27 06:52:37;;;;;;;44.47;29.70;;;;;;;;;;6088819;23;20050;-49
2023/09/27 06:55:49;;;;;;;44.22;28.95;;;;;;;;;;6086740;23;20022;-52
2023/09/27 06:58:35;;;;;;;48.47;30.42;;;;;;;;;;6081684;23;20097;-66
2023/09/27 07:01:30;;;;;;;41.97;27.33;;;;;;;;;;6087862;23;20026;-65
2023/09/27 07:04:16;;;;;;;43.17;27.45;;;;;;;;;;6088177;23;20023;-66
2023/09/27 07:07:10;;;;;;;41.08;27.88;;;;;;;;;;6087718;23;20580;-46
2023/09/27 07:09:57;;;;;;;49.13;28.35;;;;;;;;;;6087133;23;20094;-58
2023/09/27 07:12:51;;;;;;;41.30;29.13;;;;;;;;;;6087704;23;20019;-59
2023/09/27 07:15:38;;;;;;;45.60;29.00;;;;;;;;;;6089301;23;20892;-57
2023/09/27 07:18:38;;;;;;;45.85;26.67;;;;;;;;;;6089477;23;20026;-58
2023/09/27 07:21:26;;;;;;;41.65;27.30;;;;;;;;;;6088215;23;20045;-57
2023/09/27 07:24:19;;;;;;;43.47;27.50;;;;;;;;;;6087205;23;20027;-57
2023/09/27 07:27:07;;;;;;;44.15;27.58;;;;;;;;;;6084338;23;20752;-65
2023/09/27 07:30:01;;;;;;;39.78;25.60;;;;;;;;;;6088801;23;20034;-64
2023/09/27 07:32:48;;;;;;;37.40;26.67;;;;;;;;;;6089340;23;20652;-65
2023/09/27 07:35:42;;;;;;;37.72;25.00;;;;;;;;;;6089164;23;20457;-59
2023/09/27 07:38:37;;;;;;;32.90;23.88;;;;;;;;;;6086542;23;20336;-59
2023/09/27 07:41:31;;;;;;;32.22;23.00;;;;;;;;;;6086023;23;20477;-60
2023/09/27 07:44:17;;;;;;;30.77;22.58;;;;;;;;;;6090392;23;20069;-59
2023/09/27 07:47:11;;;;;;;36.80;23.90;;;;;;;;;;6089640;23;20027;-60
2023/09/27 07:49:59;;;;;;;37.35;24.40;;;;;;;;;;6089980;23;20023;-60
2023/09/27 07:52:55;;;;;;;39.03;23.92;;;;;;;;;;6088335;23;20106;-52
2023/09/27 07:55:50;;;;;;;36.60;23.90;;;;;;;;;;6087683;23;20031;-58
2023/09/27 07:58:42;;;;;;;30.52;22.20;;;;;;;;;;6089195;23;20097;-58
2023/09/27 08:01:33;;;;;;;35.60;22.58;;;;;;;;;;6089276;23;20027;-58
2023/09/27 08:04:27;;;;;;;33.88;22.25;;;;;;;;;;6087546;23;20026;-58
2023/09/27 08:07:14;;;;;;;31.40;21.95;;;;;;;;;;6090880;23;20026;-60
2023/09/27 08:10:10;;;;;;;36.70;21.70;;;;;;;;;;6086427;23;20030;-60
2023/09/27 08:12:55;;;;;;;34.38;22.65;;;;;;;;;;6088394;23;20094;-60
2023/09/27 08:15:49;;;;;;;36.13;21.88;;;;;;;;;;6089448;23;20033;-60
2023/09/27 08:18:42;;;;;;;27.83;19.85;;;;;;;;;;6090286;23;20025;-59
2023/09/27 08:21:42;;;;;;;26.35;19.05;;;;;;;;;;6089668;23;20022;-59
2023/09/27 08:24:29;;;;;;;25.38;18.20;;;;;;;;;;6088013;23;20072;-60
2023/09/27 08:27:25;;;;;;;28.90;18.08;;;;;;;;;;6088266;23;20054;-59
2023/09/27 08:30:12;;;;;;;24.20;17.60;;;;;;;;;;6089033;23;20082;-58
2023/09/27 08:33:06;;;;;;;25.67;18.05;;;;;;;;;;6089036;23;20029;-54
2023/09/27 08:35:53;;;;;;;24.95;17.73;;;;;;;;;;6090396;23;20475;-49
2023/09/27 08:38:47;;;;;;;25.50;16.60;;;;;;;;;;6088385;23;20034;-49
2023/09/27 08:41:34;;;;;;;22.65;17.98;;;;;;;;;;6088541;23;20018;-49
2023/09/27 08:44:28;;;;;;;27.88;18.55;;;;;;;;;;6086331;23;20070;-47
2023/09/27 08:47:15;;;;;;;24.05;17.23;;;;;;;;;;6087879;23;20022;-46
2023/09/27 08:50:11;;;;;;;22.17;16.35;;;;;;;;;;6083963;23;20026;-49
2023/09/27 08:52:57;;;;;;;25.85;18.45;;;;;;;;;;6088440;23;20019;-51
2023/09/27 08:55:51;;;;;;;24.13;17.42;;;;;;;;;;6083279;23;20062;-46
2023/09/27 08:58:39;;;;;;;26.95;18.02;;;;;;;;;;6088868;23;20103;-50
2023/09/27 09:01:33;;;;;;;20.80;16.55;;;;;;;;;;6087422;23;20022;-63
2023/09/27 09:04:22;;;;;;;29.67;19.35;;;;;;;;;;6084047;23;20101;-49
2023/09/27 09:07:14;;;;;;;21.98;16.50;;;;;;;;;;6086504;23;20030;-46
2023/09/27 09:10:01;;;;;;;23.52;16.58;;;;;;;;;;6087283;23;20694;-51
2023/09/27 09:13:03;;;;;;;26.88;17.65;;;;;;;;;;6085997;23;20026;-51
2023/09/27 09:15:49;;;;;;;27.98;17.75;;;;;;;;;;6088340;23;20026;-49
2023/09/27 09:18:59;;;;;;;23.33;17.60;;;;;;;;;;6088644;23;20089;-65
2023/09/27 09:22:02;;;;;;;23.67;16.83;;;;;;;;;;6095225;23;20034;-66
2023/09/27 09:24:59;;;;;;;25.30;15.85;;;;;;;;;;6083657;23;20078;-66
2023/09/27 09:27:44;;;;;;;30.70;16.67;;;;;;;;;;6086744;23;20022;-66
2023/09/27 09:30:38;;;;;;;28.40;17.25;;;;;;;;;;6087118;23;20085;-66
2023/09/27 09:33:28;;;;;;;26.20;17.42;;;;;;;;;;6085773;23;20027;-60
2023/09/27 09:36:27;;;;;;;21.73;16.67;;;;;;;;;;6088306;23;20074;-59
2023/09/27 09:39:19;;;;;;;23.50;15.50;;;;;;;;;;6087351;23;20053;-59
2023/09/27 09:42:11;;;;;;;27.95;15.65;;;;;;;;;;6082781;23;20485;-60
2023/09/27 09:45:06;;;;;;;18.65;14.18;;;;;;;;;;6087237;23;20026;-59
2023/09/27 09:47:54;;;;;;;22.08;16.15;;;;;;;;;;6086310;23;20125;-49
2023/09/27 09:50:49;;;;;;;25.00;14.73;;;;;;;;;;6088086;23;20054;-48
2023/09/27 09:53:39;;;;;;;24.73;15.48;;;;;;;;;;6086953;23;20376;-49
2023/09/27 09:56:34;;;;;;;25.23;15.45;;;;;;;;;;6088319;23;20326;-48
2023/09/27 09:59:56;;;;;;;24.85;14.45;;;;;;;;;;6086811;23;20025;-58
2023/09/27 10:02:52;;;;;;;22.30;13.32;;;;;;;;;;6086199;23;20372;-66
2023/09/27 10:05:38;;;;;;;26.73;16.23;;;;;;;;;;6087605;23;20080;-65
2023/09/27 10:08:34;;;;;;;20.45;13.48;;;;;;;;;;6086144;23;20053;-66
2023/09/27 10:11:26;;;;;;;23.92;14.13;;;;;;;;;;6082454;23;20082;-66
2023/09/27 10:14:16;;;;;;;19.88;13.68;;;;;;;;;;6088430;23;20054;-65
2023/09/27 10:17:31;;;;;;;25.10;14.60;;;;;;;;;;6087715;23;20032;-65
2023/09/27 10:20:24;;;;;;;24.42;14.95;;;;;;;;;;6087414;23;20083;-66
2023/09/27 10:23:17;;;;;;;22.02;13.30;;;;;;;;;;6084584;23;20019;-66
2023/09/27 10:26:17;;;;;;;21.77;14.20;;;;;;;;;;6088366;23;20117;-48
2023/09/27 10:29:12;;;;;;;26.77;17.05;;;;;;;;;;6088084;23;20098;-60
2023/09/27 10:31:57;;;;;;;23.92;14.60;;;;;;;;;;6087624;23;20442;-60
2023/09/27 10:34:51;;;;;;;29.50;16.67;;;;;;;;;;6088487;23;20034;-60
2023/09/27 10:37:57;;;;;;;32.20;18.60;;;;;;;;;;6086537;23;20029;-61
2023/09/27 10:40:50;;;;;;;38.97;18.92;;;;;;;;;;6087216;23;20106;-63
2023/09/27 10:43:42;;;;;;;30.45;19.13;;;;;;;;;;6088714;23;20105;-61
2023/09/27 10:46:45;;;;;;;30.67;20.42;;;;;;;;;;6087313;23;20504;-60
2023/09/27 10:49:38;;;;;;;29.35;21.65;;;;;;;;;;6086613;23;20364;-59
2023/09/27 10:52:32;;;;;;;40.83;22.85;;;;;;;;;;6088677;23;20524;-60
2023/09/27 10:55:19;;;;;;;35.10;22.15;;;;;;;;;;6087271;23;20045;-53
2023/09/27 10:58:15;;;;;;;36.22;22.52;;;;;;;;;;6083762;23;20468;-59
2023/09/27 11:01:03;;;;;;;34.78;22.83;;;;;;;;;;6087687;23;20026;-60
2023/09/27 11:03:58;;;;;;;39.33;22.60;;;;;;;;;;6089692;23;20053;-60
2023/09/27 11:06:46;;;;;;;40.65;22.73;;;;;;;;;;6090145;23;20101;-60
2023/09/27 11:09:43;;;;;;;33.15;21.33;;;;;;;;;;6084401;23;20030;-61
2023/09/27 11:12:30;;;;;;;32.95;20.85;;;;;;;;;;6089787;23;20022;-64
2023/09/27 11:15:24;;;;;;;33.50;21.08;;;;;;;;;;6087981;23;20026;-64
2023/09/27 11:18:18;;;;;;;33.88;21.73;;;;;;;;;;6087431;23;20034;-64
2023/09/27 11:21:19;;;;;;;32.80;20.48;;;;;;;;;;6088486;23;20420;-64
2023/09/27 11:24:10;;;;;;;34.45;20.55;;;;;;;;;;6088648;23;20074;-58
2023/09/27 11:27:01;;;;;;;35.35;22.35;;;;;;;;;;6088353;23;20055;-60
2023/09/27 11:29:52;;;;;;;38.00;24.33;;;;;;;;;;6088778;23;20349;-60
2023/09/27 11:32:50;;;;;;;38.85;23.05;;;;;;;;;;6088659;23;20026;-60
2023/09/27 11:35:39;;;;;;;35.92;22.83;;;;;;;;;;6088415;23;20097;-60
2023/09/27 11:38:32;;;;;;;39.40;24.77;;;;;;;;;;6084980;23;20018;-60
2023/09/27 11:41:19;;;;;;;37.92;24.02;;;;;;;;;;6087608;23;20026;-59
2023/09/27 11:44:20;;;;;;;44.75;25.55;;;;;;;;;;6088765;23;20456;-58
2023/09/27 11:47:10;;;;;;;43.35;27.42;;;;;;;;;;6089020;23;20129;-58
2023/09/27 11:50:04;;;;;;;52.70;24.88;;;;;;;;;;6089540;23;20022;-58
2023/09/27 11:52:51;;;;;;;49.08;26.83;;;;;;;;;;6089534;23;20054;-64
2023/09/27 11:55:45;;;;;;;57.58;27.92;;;;;;;;;;6084702;23;20093;-59
2023/09/27 11:58:32;;;;;;;56.53;31.40;;;;;;;;;;6086243;23;20018;-58
2023/09/27 12:01:26;;;;;;;50.53;28.60;;;;;;;;;;6085786;23;20027;-58
2023/09/27 12:04:13;;;;;;;50.92;27.63;;;;;;;;;;6083723;23;20594;-59
2023/09/27 12:07:07;;;;;;;59.72;30.35;;;;;;;;;;6089054;23;20537;-58
2023/09/27 12:09:55;;;;;;;51.47;27.55;;;;;;;;;;6084883;23;20053;-58
2023/09/27 12:12:49;;;;;;;49.83;28.48;;;;;;;;;;6089249;23;20018;-59
2023/09/27 12:15:36;;;;;;;48.53;24.58;;;;;;;;;;6087779;23;20032;-58
2023/09/27 12:18:43;;;;;;;42.58;22.17;;;;;;;;;;6089087;23;20026;-58
2023/09/27 12:21:37;;;;;;;40.35;22.10;;;;;;;;;;6088188;23;20026;-58
2023/09/27 12:24:31;;;;;;;44.17;21.05;;;;;;;;;;6088020;23;20033;-46
2023/09/27 12:27:18;;;;;;;36.50;20.77;;;;;;;;;;6084503;23;20457;-47
2023/09/27 12:30:12;;;;;;;35.00;17.48;;;;;;;;;;6087426;23;20074;-46
2023/09/27 12:32:59;;;;;;;31.35;17.67;;;;;;;;;;6086162;23;20042;-46
2023/09/27 12:35:53;;;;;;;31.77;18.27;;;;;;;;;;6088440;23;20030;-49
2023/09/27 12:38:40;;;;;;;30.45;16.17;;;;;;;;;;6078326;23;20086;-59
2023/09/27 12:41:34;;;;;;;29.88;15.95;;;;;;;;;;6085642;23;20544;-59
2023/09/27 12:44:21;;;;;;;29.45;16.17;;;;;;;;;;6088038;23;20446;-59
2023/09/27 12:47:15;;;;;;;32.95;15.35;;;;;;;;;;6088945;23;20101;-58
2023/09/27 12:50:03;;;;;;;25.63;13.50;;;;;;;;;;6089179;23;20024;-50
2023/09/27 12:52:57;;;;;;;22.25;13.20;;;;;;;;;;6086410;23;20023;-59
2023/09/27 12:55:45;;;;;;;28.60;12.80;;;;;;;;;;6088605;23;20022;-58
2023/09/27 12:58:39;;;;;;;22.42;12.18;;;;;;;;;;6087868;23;20719;-59
2023/09/27 13:01:26;;;;;;;22.55;11.70;;;;;;;;;;6087760;23;20068;-58
2023/09/27 13:04:20;;;;;;;21.48;10.52;;;;;;;;;;6088236;23;20026;-59
2023/09/27 13:07:07;;;;;;;26.48;10.70;;;;;;;;;;6087230;23;20030;-61
2023/09/27 13:10:03;;;;;;;21.20;10.38;;;;;;;;;;6083909;23;20037;-61
2023/09/27 13:12:49;;;;;;;21.65;9.57;;;;;;;;;;6086030;23;20086;-61
2023/09/27 13:15:41;;;;;;;21.02;9.55;;;;;;;;;;6087536;23;20089;-61
2023/09/27 13:18:29;;;;;;;16.60;9.57;;;;;;;;;;6088134;23;20019;-61
2023/09/27 13:21:29;;;;;;;22.02;9.63;;;;;;;;;;6086941;23;20130;-59
2023/09/27 13:24:17;;;;;;;17.73;9.68;;;;;;;;;;6087698;23;20030;-59
2023/09/27 13:27:11;;;;;;;18.77;8.50;;;;;;;;;;6086709;23;20268;-59
2023/09/27 13:29:59;;;;;;;20.25;9.27;;;;;;;;;;6086711;23;20026;-60
2023/09/27 13:33:02;;;;;;;18.23;9.80;;;;;;;;;;6088782;23;20057;-59
2023/09/27 13:35:50;;;;;;;20.38;9.48;;;;;;;;;;6087806;23;20345;-59
2023/09/27 13:38:45;;;;;;;22.80;9.57;;;;;;;;;;6087545;23;20049;-59
2023/09/27 13:41:31;;;;;;;19.42;8.63;;;;;;;;;;6086837;23;20029;-60
2023/09/27 13:44:26;;;;;;;15.20;8.35;;;;;;;;;;6088561;23;20074;-59
2023/09/27 13:47:12;;;;;;;20.60;8.88;;;;;;;;;;6087718;23;20045;-49
2023/09/27 13:50:06;;;;;;;20.02;8.80;;;;;;;;;;6087551;23;20026;-66
2023/09/27 13:52:54;;;;;;;17.40;8.00;;;;;;;;;;6087210;23;20028;-65
2023/09/27 13:55:48;;;;;;;16.20;8.25;;;;;;;;;;6086341;23;20101;-66
2023/09/27 13:58:39;;;;;;;19.08;9.27;;;;;;;;;;6086673;23;20499;-66
2023/09/27 14:01:30;;;;;;;17.98;8.35;;;;;;;;;;6086283;23;20026;-66
2023/09/27 14:03:58;;;;;;;25.83;8.52;;;;;;;;;;6088009;23;20042;-65
2023/09/27 14:06:26;;;;;;;20.85;8.57;;;;;;;;;;6082707;23;20034;-60
2023/09/27 14:09:00;;;;;;;16.02;7.20;;;;;;;;;;6085701;23;20500;-60
2023/09/27 14:11:47;;;;;;;16.58;7.45;;;;;;;;;;6081894;23;20026;-60
2023/09/27 14:14:41;;;;;;;14.80;6.78;;;;;;;;;;6081136;23;20928;-60
2023/09/27 14:17:28;;;;;;;17.67;7.00;;;;;;;;;;6083750;23;20026;-60
2023/09/27 14:20:28;;;;;;;19.02;7.40;;;;;;;;;;6086548;23;20034;-60
2023/09/27 14:23:16;;;;;;;17.02;6.82;;;;;;;;;;6085520;23;20023;-60
2023/09/27 14:26:14;;;;;;;15.82;6.40;;;;;;;;;;6085258;23;20246;-47
2023/09/27 14:29:00;;;;;;;19.30;7.45;;;;;;;;;;6081333;23;20109;-49
2023/09/27 14:32:23;;;;;;;14.45;6.50;;;;;;;;;;6085873;23;20105;-48
2023/09/27 14:35:18;;;;;;;17.85;6.78;;;;;;;;;;6085425;23;20019;-50
2023/09/27 14:38:18;;;;;;;17.70;6.70;;;;;;;;;;6087202;23;20026;-49
2023/09/27 14:41:12;;;;;;;17.77;6.93;;;;;;;;;;6089267;23;20026;-58
2023/09/27 14:44:00;;;;;;;16.80;6.82;;;;;;;;;;6089525;23;20086;-59
2023/09/27 14:46:34;;;;;;;17.80;6.38;;;;;;;;;;6088228;23;20030;-58
2023/09/27 14:49:21;;;;;;;14.85;6.32;;;;;;;;;;6088947;23;20026;-58
2023/09/27 14:52:15;;;;;;;24.38;7.15;;;;;;;;;;6085920;23;20022;-59
2023/09/27 14:55:03;;;;;;;29.13;7.35;;;;;;;;;;6085980;23;20440;-58
2023/09/27 14:57:58;;;;;;;24.33;7.15;;;;;;;;;;6085498;23;20631;-58
2023/09/27 15:00:51;;;;;;;15.55;6.32;;;;;;;;;;6087946;23;20023;-58
2023/09/27 15:03:38;;;;;;;13.60;6.63;;;;;;;;;;6085421;23;20027;-60
2023/09/27 15:06:32;;;;;;;20.30;6.25;;;;;;;;;;6085904;23;20477;-60
2023/09/27 15:09:19;;;;;;;16.90;6.00;;;;;;;;;;6087495;23;20468;-60
2023/09/27 15:12:13;;;;;;;19.73;6.50;;;;;;;;;;6086527;23;20090;-60
2023/09/27 15:15:00;;;;;;;15.80;5.90;;;;;;;;;;6087686;23;20102;-60
2023/09/27 15:17:54;;;;;;;16.17;5.85;;;;;;;;;;6087127;23;20022;-58
2023/09/27 15:20:48;;;;;;;19.77;6.35;;;;;;;;;;6087382;23;20026;-50
2023/09/27 15:23:22;;;;;;;13.60;5.70;;;;;;;;;;6089335;23;20081;-50
2023/09/27 15:25:50;;;;;;;22.95;6.63;;;;;;;;;;6086592;23;20086;-51
2023/09/27 15:28:24;;;;;;;16.25;5.93;;;;;;;;;;6087729;23;20026;-51
2023/09/27 15:30:58;;;;;;;24.33;6.07;;;;;;;;;;6088402;23;20022;-53
2023/09/27 15:33:32;;;;;;;16.13;6.10;;;;;;;;;;6089448;23;20025;-51
2023/09/27 15:35:59;;;;;;;19.80;6.07;;;;;;;;;;6087850;23;20029;-64
2023/09/27 15:38:53;;;;;;;18.90;6.28;;;;;;;;;;6089169;23;20592;-51
2023/09/27 15:41:40;;;;;;;19.60;6.40;;;;;;;;;;6087860;23;20078;-49
2023/09/27 15:44:38;;;;;;;26.70;7.38;;;;;;;;;;6089778;23;20465;-48
2023/09/27 15:47:24;;;;;;;16.42;5.97;;;;;;;;;;6088278;23;20022;-48
2023/09/27 15:50:18;;;;;;;17.90;5.95;;;;;;;;;;6088504;23;20544;-47
2023/09/27 15:53:12;;;;;;;17.25;6.32;;;;;;;;;;6087617;23;20038;-50
2023/09/27 15:56:00;;;;;;;22.63;7.25;;;;;;;;;;6087696;23;20102;-68
2023/09/27 15:58:54;;;;;;;19.17;6.63;;;;;;;;;;6088500;23;20033;-61
2023/09/27 16:01:41;;;;;;;21.00;6.78;;;;;;;;;;6087458;23;20022;-61
2023/09/27 16:04:35;;;;;;;18.70;6.30;;;;;;;;;;6087691;23;20284;-61
2023/09/27 16:07:24;;;;;;;21.77;6.75;;;;;;;;;;6088240;23;20034;-61
2023/09/27 16:10:18;;;;;;;16.88;6.07;;;;;;;;;;6084473;23;20022;-61
2023/09/27 16:13:21;;;;;;;13.70;5.65;;;;;;;;;;6086861;23;20029;-62
2023/09/27 16:16:14;;;;;;;22.08;6.68;;;;;;;;;;6087089;23;20034;-62
2023/09/27 16:19:08;;;;;;;24.52;6.93;;;;;;;;;;6086846;23;20085;-62
2023/09/27 16:22:08;;;;;;;21.42;7.00;;;;;;;;;;6083351;23;20455;-62
2023/09/27 16:24:56;;;;;;;19.75;6.90;;;;;;;;;;6085140;23;20058;-62
2023/09/27 16:27:50;;;;;;;15.15;6.28;;;;;;;;;;6083357;23;20040;-62
2023/09/27 16:30:39;;;;;;;18.83;6.40;;;;;;;;;;6083231;23;20029;-50
2023/09/27 16:33:21;;;;;;;22.02;6.25;;;;;;;;;;6078297;23;21093;-67
2023/09/27 16:35:50;;;;;;;16.20;6.72;;;;;;;;;;6086731;23;20022;-69
2023/09/27 16:38:17;;;;;;;15.32;6.60;;;;;;;;;;6088211;23;20022;-69